Time;durP1;ratioP1;P1;durP2;ratioP2;P2;SDS_P1;SDS_P2;PMS_P1;PMS_P2;Temp;Humidity;BMP_temperature;BMP_pressure;BME280_temperature;BME280_humidity;BME280_pressure;Samples;Min_cycle;Max_cycle;Signal;HPM_P1;HPM_P2
2022/01/27 00:04:22;;;;;;;;;;;;;;;-1.53;100.00;97974.56;5074204;28;19920;-65
2022/01/27 00:06:47;;;;;;;;;;;;;;;-1.53;100.00;97974.56;5053820;28;20012;-65
2022/01/27 00:09:37;;;;;;;;;;;;;;;-1.46;100.00;97980.84;5055890;28;19968;-65
2022/01/27 00:11:58;;;;;;;;;;;;;;;-1.76;100.00;97973.78;5054463;28;19921;-65
2022/01/27 00:14:23;;;;;;;;;;;;;;;-1.61;100.00;97967.44;5055187;28;20372;-65
2022/01/27 00:16:56;;;;;;;;;;;;;;;-1.78;100.00;97966.19;5056293;28;19924;-65
2022/01/27 00:19:21;;;;;;;;;;;;;;;-1.65;100.00;97963.50;5067607;28;19931;-65
2022/01/27 00:21:46;;;;;;;;;;;;;;;-1.67;100.00;97961.03;5075842;28;20266;-67
2022/01/27 00:24:12;;;;;;;;;;;;;;;-1.55;100.00;97958.44;5074515;28;19924;-65
2022/01/27 00:26:37;;;;;;;;;;;;;;;-1.29;100.00;97947.72;5067478;28;19923;-66
2022/01/27 00:29:02;;;;;;;;;;;;;;;-1.54;100.00;97950.59;5037094;28;19978;-66
2022/01/27 00:31:27;;;;;;;;;;;;;;;-1.48;100.00;97957.00;5068933;28;19924;-65
2022/01/27 00:33:53;;;;;;;;;;;;;;;-1.51;100.00;97959.84;5074680;28;19916;-64
2022/01/27 00:36:18;;;;;;;;;;;;;;;-1.42;100.00;97952.19;5072956;28;19920;-65
2022/01/27 00:38:44;;;;;;;;;;;;;;;-1.80;100.00;97951.84;5066201;28;19927;-66
2022/01/27 00:41:10;;;;;;;;;;;;;;;-1.60;100.00;97943.38;5074679;28;19921;-66
2022/01/27 00:43:35;;;;;;;;;;;;;;;-1.89;100.00;97948.25;5039051;28;19920;-65
2022/01/27 00:46:00;;;;;;;;;;;;;;;-1.65;100.00;97937.78;5055923;28;19963;-65
2022/01/27 00:48:26;;;;;;;;;;;;;;;-1.65;100.00;97939.53;5054781;28;19924;-65
2022/01/27 00:50:57;;;;;;;;;;;;;;;-1.48;100.00;97933.88;5070066;28;19921;-65
2022/01/27 00:53:39;;;;;;;;;;;;;;;-1.16;100.00;97934.66;5074469;28;19924;-65
2022/01/27 00:56:20;;;;;;;;;;;;;;;-1.45;100.00;97946.50;5071012;28;20062;-65
2022/01/27 01:01:16;;;;;;;;;;;;;;;-1.44;100.00;97941.22;5054922;28;19916;-65
2022/01/27 01:03:45;;;;;;;;;;;;;;;-1.37;100.00;97949.25;5074487;28;19921;-65
2022/01/27 01:11:47;;;;;;;;;;;;;;;-1.56;100.00;97954.25;5068087;28;19932;-65
2022/01/27 01:19:40;;;;;;;;;;;;;;;-1.45;100.00;97944.72;5054292;28;19948;-65
2022/01/27 01:29:25;;;;;;;;;;;;;;;-1.42;100.00;97948.81;5054747;28;19917;-65
2022/01/27 01:33:06;;;;;;;;;;;;;;;-1.51;100.00;97950.38;5074165;28;20004;-64
2022/01/27 01:35:52;;;;;;;;;;;;;;;-1.48;100.00;97952.69;5073508;28;20409;-63
2022/01/27 01:38:18;;;;;;;;;;;;;;;-1.50;100.00;97941.69;5068640;28;19970;-63
2022/01/27 01:40:46;;;;;;;;;;;;;;;-1.43;100.00;97949.75;5071986;28;19948;-63
2022/01/27 01:43:11;;;;;;;;;;;;;;;-1.42;100.00;97949.63;5054076;28;19974;-63
2022/01/27 01:45:36;;;;;;;;;;;;;;;-1.51;100.00;97947.00;5059888;28;19916;-63
2022/01/27 01:48:02;;;;;;;;;;;;;;;-1.42;100.00;97938.53;5073221;28;19917;-63
2022/01/27 01:50:28;;;;;;;;;;;;;;;-1.30;100.00;97932.41;5055149;28;20266;-63
2022/01/27 01:52:53;;;;;;;;;;;;;;;-1.43;100.00;97934.31;5058421;28;19969;-63
2022/01/27 01:55:18;;;;;;;;;;;;;;;-1.40;100.00;97934.91;5073514;28;19916;-63
2022/01/27 01:57:44;;;;;;;;;;;;;;;-1.44;100.00;97936.06;5073119;28;20289;-63
2022/01/27 02:00:10;;;;;;;;;;;;;;;-1.41;100.00;97927.31;5055667;28;19962;-63
2022/01/27 02:02:35;;;;;;;;;;;;;;;-1.46;100.00;97924.28;5055975;28;19927;-63
2022/01/27 02:05:01;;;;;;;;;;;;;;;-1.61;100.00;97920.38;5053656;28;19916;-64
2022/01/27 02:18:01;;;;;;;;;;;;;;;-1.28;100.00;97884.22;5061750;28;19923;-63
2022/01/27 02:20:30;;;;;;;;;;;;;;;-1.07;100.00;97884.22;5054495;28;19948;-63
2022/01/27 02:22:55;;;;;;;;;;;;;;;-0.94;100.00;97890.78;5073409;28;19923;-63
2022/01/27 02:25:21;;;;;;;;;;;;;;;-1.36;100.00;97884.84;5066631;28;19921;-63
2022/01/27 02:27:46;;;;;;;;;;;;;;;-1.26;100.00;97890.88;5053373;28;19925;-63
2022/01/27 02:30:12;;;;;;;;;;;;;;;-1.23;100.00;97894.97;5053134;28;19924;-63
2022/01/27 02:32:37;;;;;;;;;;;;;;;-0.87;100.00;97888.53;5071859;28;20017;-63
2022/01/27 02:35:04;;;;;;;;;;;;;;;-0.86;100.00;97887.59;5067419;28;19916;-63
2022/01/27 02:37:29;;;;;;;;;;;;;;;-1.07;100.00;97899.66;5035381;28;19916;-63
2022/01/27 02:39:55;;;;;;;;;;;;;;;-1.20;100.00;97896.44;5053149;28;19966;-63
2022/01/27 02:42:30;;;;;;;;;;;;;;;-1.52;100.00;97902.47;5051638;28;19924;-63
2022/01/27 02:45:00;;;;;;;;;;;;;;;-1.15;100.00;97897.72;5072601;28;20273;-64
2022/01/27 02:47:26;;;;;;;;;;;;;;;-1.02;100.00;97893.19;5073025;28;19958;-63
2022/01/27 02:49:51;;;;;;;;;;;;;;;-0.90;100.00;97892.19;5073203;28;19920;-63
2022/01/27 02:52:17;;;;;;;;;;;;;;;-1.05;100.00;97905.47;5057045;28;19916;-64
2022/01/27 02:54:42;;;;;;;;;;;;;;;-1.16;100.00;97890.94;5056235;28;20336;-63
2022/01/27 02:57:07;;;;;;;;;;;;;;;-1.01;100.00;97888.88;5072874;28;19916;-64
2022/01/27 02:59:32;;;;;;;;;;;;;;;-1.06;100.00;97888.44;5076944;28;19912;-64
2022/01/27 03:01:58;;;;;;;;;;;;;;;-1.29;100.00;97891.13;5068236;28;19924;-63
2022/01/27 03:04:24;;;;;;;;;;;;;;;-1.37;100.00;97887.53;5075041;28;19923;-63
2022/01/27 03:06:50;;;;;;;;;;;;;;;-1.19;100.00;97898.09;5064635;28;19961;-63
2022/01/27 03:09:15;;;;;;;;;;;;;;;-1.11;100.00;97908.56;5057039;28;19974;-63
2022/01/27 03:11:47;;;;;;;;;;;;;;;-1.12;100.00;97914.66;5055164;28;20394;-64
2022/01/27 03:14:20;;;;;;;;;;;;;;;-1.32;100.00;97918.84;5062179;28;19920;-63
2022/01/27 03:16:46;;;;;;;;;;;;;;;-1.37;100.00;97916.66;5065705;28;19917;-64
2022/01/27 03:19:11;;;;;;;;;;;;;;;-1.39;100.00;97923.66;5056952;28;20381;-63
2022/01/27 03:21:37;;;;;;;;;;;;;;;-1.48;100.00;97918.44;5056684;28;20383;-63
2022/01/27 03:24:02;;;;;;;;;;;;;;;-1.16;100.00;97915.84;5073820;28;19927;-63
2022/01/27 03:26:28;;;;;;;;;;;;;;;-1.42;100.00;97911.06;5058620;28;20329;-64
2022/01/27 03:28:54;;;;;;;;;;;;;;;-1.29;100.00;97909.13;5076198;28;20365;-63
2022/01/27 03:31:19;;;;;;;;;;;;;;;-1.36;100.00;97909.75;5074800;28;19978;-62
2022/01/27 03:33:45;;;;;;;;;;;;;;;-1.37;100.00;97908.94;5060507;28;19917;-63
2022/01/27 03:36:10;;;;;;;;;;;;;;;-1.29;100.00;97905.75;5058583;28;19924;-63
2022/01/27 03:38:36;;;;;;;;;;;;;;;-1.16;100.00;97906.34;5075970;28;19916;-63
2022/01/27 03:41:06;;;;;;;;;;;;;;;-1.04;100.00;97894.25;5075762;28;20329;-64
2022/01/27 03:43:31;;;;;;;;;;;;;;;-1.45;100.00;97900.22;5060384;28;19916;-64
2022/01/27 03:45:56;;;;;;;;;;;;;;;-1.36;100.00;97892.56;5056526;28;19924;-64
2022/01/27 03:48:21;;;;;;;;;;;;;;;-1.38;100.00;97888.47;5056382;28;19958;-63
2022/01/27 03:50:47;;;;;;;;;;;;;;;-1.17;100.00;97889.28;5056557;28;19916;-63
2022/01/27 03:53:14;;;;;;;;;;;;;;;-1.13;100.00;97887.31;5066366;28;20354;-63
2022/01/27 03:55:39;;;;;;;;;;;;;;;-1.10;100.00;97887.84;5075575;28;19913;-63
2022/01/27 03:58:05;;;;;;;;;;;;;;;-1.18;100.00;97886.88;5074866;28;19917;-63
2022/01/27 04:00:30;;;;;;;;;;;;;;;-1.27;100.00;97894.38;5055842;28;20277;-63
2022/01/27 04:03:04;;;;;;;;;;;;;;;-1.17;100.00;97886.72;5056263;28;19913;-63
2022/01/27 04:05:36;;;;;;;;;;;;;;;-1.15;100.00;97886.59;5075959;28;19998;-64
2022/01/27 04:08:02;;;;;;;;;;;;;;;-1.34;100.00;97877.81;5075512;28;20031;-64
2022/01/27 04:10:27;;;;;;;;;;;;;;;-1.35;100.00;97872.81;5074683;28;19927;-63
2022/01/27 04:12:52;;;;;;;;;;;;;;;-1.02;100.00;97866.66;5075795;28;19916;-62
2022/01/27 04:15:17;;;;;;;;;;;;;;;-1.19;100.00;97869.81;5056668;28;19917;-64
2022/01/27 04:17:43;;;;;;;;;;;;;;;-1.27;100.00;97863.53;5075689;28;19965;-63
2022/01/27 04:20:08;;;;;;;;;;;;;;;-1.29;100.00;97859.47;5058382;28;19940;-64
2022/01/27 04:22:33;;;;;;;;;;;;;;;-1.01;100.00;97856.25;5055509;28;19974;-64
2022/01/27 04:24:58;;;;;;;;;;;;;;;-1.00;100.00;97849.31;5055267;28;19913;-64
2022/01/27 04:27:29;;;;;;;;;;;;;;;-1.02;100.00;97839.16;5073166;28;20384;-66
2022/01/27 04:29:55;;;;;;;;;;;;;;;-0.95;100.00;97847.19;5073180;28;20425;-64
2022/01/27 04:32:25;;;;;;;;;;;;;;;-1.01;100.00;97850.28;5075396;28;20001;-63
2022/01/27 04:34:53;;;;;;;;;;;;;;;-1.13;100.00;97848.72;5057046;28;20237;-63
2022/01/27 04:37:22;;;;;;;;;;;;;;;-0.99;100.00;97833.75;5056638;28;19922;-64
2022/01/27 04:40:03;;;;;;;;;;;;;;;-0.99;100.00;97833.75;5063934;28;20019;-63
2022/01/27 04:42:48;;;;;;;;;;;;;;;-0.81;100.00;97833.97;5055347;28;20385;-63
2022/01/27 04:45:16;;;;;;;;;;;;;;;-1.10;100.00;97830.44;5055166;28;19920;-66
2022/01/27 04:47:46;;;;;;;;;;;;;;;-1.12;100.00;97834.94;5071520;28;19923;-63
2022/01/27 04:50:11;;;;;;;;;;;;;;;-1.01;100.00;97832.28;5065681;28;19991;-63
2022/01/27 04:52:41;;;;;;;;;;;;;;;-0.69;100.00;97832.13;5074020;28;20019;-63
2022/01/27 04:55:08;;;;;;;;;;;;;;;-0.85;100.00;97845.47;5056401;28;19966;-64
2022/01/27 04:57:35;;;;;;;;;;;;;;;-0.84;100.00;97850.47;5056382;28;19959;-63
2022/01/27 05:00:01;;;;;;;;;;;;;;;-0.87;100.00;97849.94;5061002;28;20006;-63
2022/01/27 05:02:43;;;;;;;;;;;;;;;-0.85;100.00;97851.44;5074559;28;19960;-63
2022/01/27 05:05:08;;;;;;;;;;;;;;;-0.72;100.00;97853.78;5073973;28;19916;-63
2022/01/27 05:07:33;;;;;;;;;;;;;;;-0.75;100.00;97840.34;5073865;28;20324;-63
2022/01/27 05:10:07;;;;;;;;;;;;;;;-0.78;100.00;97835.50;5067998;28;20328;-63
2022/01/27 05:12:40;;;;;;;;;;;;;;;-0.77;100.00;97845.63;5062117;28;19912;-63
2022/01/27 05:15:06;;;;;;;;;;;;;;;-0.68;100.00;97841.47;5073575;28;19916;-65
2022/01/27 05:17:31;;;;;;;;;;;;;;;-0.71;99.87;97852.00;5073914;28;19916;-64
2022/01/27 05:19:57;;;;;;;;;;;;;;;-0.88;100.00;97840.56;5053584;28;20274;-64
2022/01/27 05:22:22;;;;;;;;;;;;;;;-0.73;99.83;97836.72;5057029;28;19969;-64
2022/01/27 05:24:47;;;;;;;;;;;;;;;-0.75;100.00;97841.19;5065401;28;20262;-64
2022/01/27 05:27:12;;;;;;;;;;;;;;;-0.67;100.00;97825.09;5073769;28;19939;-63
2022/01/27 05:29:38;;;;;;;;;;;;;;;-0.68;100.00;97816.56;5073810;28;19959;-63
2022/01/27 05:32:03;;;;;;;;;;;;;;;-0.81;100.00;97821.09;5054412;28;19923;-64
2022/01/27 05:34:28;;;;;;;;;;;;;;;-0.65;99.14;97810.31;5053949;28;19978;-64
2022/01/27 05:36:53;;;;;;;;;;;;;;;-0.81;99.73;97815.97;5054105;28;20290;-63
2022/01/27 05:39:19;;;;;;;;;;;;;;;-0.92;100.00;97816.88;5053487;28;19935;-63
2022/01/27 05:41:44;;;;;;;;;;;;;;;-0.65;98.84;97808.56;5069773;28;20007;-64
2022/01/27 05:44:09;;;;;;;;;;;;;;;-0.75;98.50;97812.88;5073606;28;19923;-64
2022/01/27 05:46:35;;;;;;;;;;;;;;;-0.75;98.78;97807.72;5073237;28;19923;-65
2022/01/27 05:49:00;;;;;;;;;;;;;;;-0.62;98.00;97810.88;5073249;28;19955;-67
2022/01/27 05:51:25;;;;;;;;;;;;;;;-0.84;98.45;97829.09;5069815;28;19966;-64
2022/01/27 05:53:51;;;;;;;;;;;;;;;-0.43;96.57;97838.41;5044655;28;19921;-64
2022/01/27 05:56:16;;;;;;;;;;;;;;;-0.73;96.91;97843.63;5067920;28;19916;-64
2022/01/27 05:58:41;;;;;;;;;;;;;;;-0.73;97.04;97846.19;5072963;28;19955;-64
2022/01/27 06:01:07;;;;;;;;;;;;;;;-0.72;97.41;97835.75;5071713;28;20053;-64
2022/01/27 06:03:32;;;;;;;;;;;;;;;-0.75;97.23;97835.22;5053371;28;19917;-64
2022/01/27 06:05:57;;;;;;;;;;;;;;;-0.86;97.31;97836.94;5053176;28;20361;-64
2022/01/27 06:08:23;;;;;;;;;;;;;;;-0.68;96.91;97841.47;5053154;28;19924;-64
2022/01/27 06:10:50;;;;;;;;;;;;;;;-0.98;98.02;97840.53;5053462;28;19916;-64
2022/01/27 06:13:15;;;;;;;;;;;;;;;-0.78;98.18;97840.63;5072948;28;19955;-64
2022/01/27 06:15:40;;;;;;;;;;;;;;;-0.85;99.26;97846.28;5060219;28;20067;-64
2022/01/27 06:18:06;;;;;;;;;;;;;;;-0.67;98.39;97831.03;5054929;28;19917;-65
2022/01/27 06:20:32;;;;;;;;;;;;;;;-0.73;97.00;97834.16;5072538;28;20353;-65
2022/01/27 06:22:58;;;;;;;;;;;;;;;-0.84;97.74;97845.31;5055279;28;19920;-64
2022/01/27 06:25:23;;;;;;;;;;;;;;;-0.92;98.43;97845.16;5053293;28;20389;-64
2022/01/27 06:27:48;;;;;;;;;;;;;;;-0.76;97.47;97849.84;5053158;28;19916;-64
2022/01/27 06:30:14;;;;;;;;;;;;;;;-0.75;96.94;97843.75;5052907;28;19959;-64
2022/01/27 06:32:39;;;;;;;;;;;;;;;-0.87;98.40;97839.63;5070306;28;19923;-64
2022/01/27 06:35:05;;;;;;;;;;;;;;;-0.72;97.10;97834.94;5060345;28;19920;-64
2022/01/27 06:37:31;;;;;;;;;;;;;;;-0.75;97.74;97843.75;5035250;28;20007;-64
2022/01/27 06:39:56;;;;;;;;;;;;;;;-0.66;97.33;97845.53;5052717;28;19928;-64
2022/01/27 06:42:21;;;;;;;;;;;;;;;-0.78;97.01;97848.34;5049574;28;19920;-64
2022/01/27 06:44:46;;;;;;;;;;;;;;;-0.75;97.08;97858.38;5063851;28;19924;-64
2022/01/27 06:47:12;;;;;;;;;;;;;;;-0.86;98.70;97857.53;5065602;28;19923;-65
2022/01/27 06:49:37;;;;;;;;;;;;;;;-0.93;98.59;97864.13;5054447;28;19921;-64
2022/01/27 06:52:03;;;;;;;;;;;;;;;-0.82;98.23;97865.78;5059988;28;19962;-64
2022/01/27 06:54:28;;;;;;;;;;;;;;;-0.77;97.92;97862.81;5052611;28;19917;-63
2022/01/27 06:56:54;;;;;;;;;;;;;;;-0.95;97.47;97865.22;5054148;28;19923;-64
2022/01/27 06:59:19;;;;;;;;;;;;;;;-1.11;98.04;97857.09;5034974;28;19917;-66
2022/01/27 07:01:45;;;;;;;;;;;;;;;-1.03;98.16;97854.72;5066027;28;19916;-64
2022/01/27 07:04:10;;;;;;;;;;;;;;;-1.02;98.35;97853.78;5048065;28;19968;-64
2022/01/27 07:06:36;;;;;;;;;;;;;;;-0.79;97.10;97865.56;5053020;28;19920;-63
2022/01/27 07:09:01;;;;;;;;;;;;;;;-0.77;98.32;97863.63;5068832;28;19923;-69
2022/01/27 07:11:26;;;;;;;;;;;;;;;-0.84;97.32;97857.41;5072261;28;20351;-64
2022/01/27 07:13:52;;;;;;;;;;;;;;;-0.88;96.87;97859.41;5059228;28;20361;-63
2022/01/27 07:16:17;;;;;;;;;;;;;;;-1.03;96.50;97854.72;5051775;28;19923;-63
2022/01/27 07:18:42;;;;;;;;;;;;;;;-0.81;96.82;97864.03;5067299;28;20000;-64
2022/01/27 07:21:08;;;;;;;;;;;;;;;-0.88;97.01;97863.72;5072239;28;19917;-64
2022/01/27 07:23:33;;;;;;;;;;;;;;;-0.73;95.79;97870.19;5062171;28;19916;-67
2022/01/27 07:25:58;;;;;;;;;;;;;;;-0.98;96.54;97868.03;5052598;28;19924;-66
2022/01/27 07:28:24;;;;;;;;;;;;;;;-0.95;96.23;97863.41;5068768;28;20007;-67
2022/01/27 07:30:49;;;;;;;;;;;;;;;-1.23;97.06;97866.69;5055921;28;19924;-65
2022/01/27 07:33:14;;;;;;;;;;;;;;;-1.26;97.46;97872.88;5065349;28;20266;-65
2022/01/27 07:35:41;;;;;;;;;;;;;;;-0.98;97.87;97873.97;5052838;28;20362;-65
2022/01/27 07:38:06;;;;;;;;;;;;;;;-1.12;96.51;97865.78;5065503;28;20020;-66
2022/01/27 07:40:32;;;;;;;;;;;;;;;-1.31;96.69;97869.06;5055175;28;19960;-65
2022/01/27 07:42:57;;;;;;;;;;;;;;;-1.26;97.36;97864.34;5055505;28;19923;-65
2022/01/27 07:45:22;;;;;;;;;;;;;;;-1.40;96.82;97873.19;5075396;28;19922;-65
2022/01/27 07:47:47;;;;;;;;;;;;;;;-1.44;97.19;97874.38;5066141;28;19917;-65
2022/01/27 07:50:13;;;;;;;;;;;;;;;-1.42;98.64;97877.66;5055519;28;19967;-67
2022/01/27 07:52:38;;;;;;;;;;;;;;;-1.32;98.23;97888.81;5056251;28;19967;-69
2022/01/27 07:55:03;;;;;;;;;;;;;;;-1.07;96.30;97895.34;5072727;28;19935;-66
2022/01/27 07:57:29;;;;;;;;;;;;;;;-1.14;95.01;97888.25;5075269;28;19916;-65
2022/01/27 07:59:54;;;;;;;;;;;;;;;-0.95;95.12;97889.16;5065106;28;20015;-65
2022/01/27 08:02:19;;;;;;;;;;;;;;;-0.85;94.04;97891.78;5064453;28;19917;-65
2022/01/27 08:04:46;;;;;;;;;;;;;;;-0.71;93.88;97883.72;5060747;28;19916;-65
2022/01/27 08:07:11;;;;;;;;;;;;;;;-0.87;95.12;97878.22;5060534;28;19920;-66
2022/01/27 08:09:37;;;;;;;;;;;;;;;-0.65;94.38;97883.22;5073689;28;19921;-65
2022/01/27 08:12:02;;;;;;;;;;;;;;;-0.90;93.20;97883.66;5056865;28;19920;-65
2022/01/27 08:14:27;;;;;;;;;;;;;;;-1.03;94.84;97886.41;5057479;28;19916;-65
2022/01/27 08:16:52;;;;;;;;;;;;;;;-1.04;94.30;97887.34;5054803;28;20070;-68
2022/01/27 08:19:18;;;;;;;;;;;;;;;-1.21;95.09;97889.69;5056390;28;19946;-65
2022/01/27 08:21:43;;;;;;;;;;;;;;;-1.16;94.76;97885.78;5048186;28;19920;-65
2022/01/27 08:24:09;;;;;;;;;;;;;;;-1.26;95.27;97888.31;5055022;28;19913;-66
2022/01/27 08:26:39;;;;;;;;;;;;;;;-1.45;95.89;97884.81;5069679;28;19966;-65
2022/01/27 08:29:14;;;;;;;;;;;;;;;-1.33;96.42;97878.63;5058807;28;19917;-65
2022/01/27 08:34:29;;;;;;;;;;;;;;;-0.96;94.99;97879.00;5066712;28;19916;-65
2022/01/27 08:36:54;;;;;;;;;;;;;;;-1.05;95.11;97879.75;5063686;28;19917;-68
2022/01/27 08:39:20;;;;;;;;;;;;;;;-1.25;95.13;97883.97;5058268;28;20033;-65
2022/01/27 08:41:45;;;;;;;;;;;;;;;-1.13;94.82;97890.69;5056346;28;19966;-66
2022/01/27 08:44:10;;;;;;;;;;;;;;;-0.99;93.81;97887.78;5065252;28;20007;-64
2022/01/27 08:46:36;;;;;;;;;;;;;;;-1.38;94.01;97880.78;5062246;28;19964;-65
2022/01/27 08:49:02;;;;;;;;;;;;;;;-1.22;94.25;97878.56;5054272;28;19924;-66
2022/01/27 08:51:29;;;;;;;;;;;;;;;-1.00;93.31;97885.31;5055703;28;20004;-65
2022/01/27 08:53:54;;;;;;;;;;;;;;;-0.92;93.23;97890.66;5058079;28;20380;-65
2022/01/27 08:56:19;;;;;;;;;;;;;;;-0.91;92.55;97887.97;5073462;28;19916;-65
2022/01/27 08:58:44;;;;;;;;;;;;;;;-0.90;91.58;97881.88;5074356;28;19959;-66
2022/01/27 09:01:09;;;;;;;;;;;;;;;-0.70;90.64;97887.09;5061186;28;19920;-65
2022/01/27 09:03:35;;;;;;;;;;;;;;;-0.69;90.79;97881.03;5067845;28;19917;-65
2022/01/27 09:06:00;;;;;;;;;;;;;;;-0.72;91.51;97892.38;5067694;28;19916;-65
2022/01/27 09:08:27;;;;;;;;;;;;;;;-0.51;90.36;97897.50;5056458;28;19917;-65
2022/01/27 09:10:53;;;;;;;;;;;;;;;-0.64;90.09;97896.91;5048620;28;20270;-65
2022/01/27 09:13:18;;;;;;;;;;;;;;;-0.55;90.02;97894.34;5056229;28;19920;-65
2022/01/27 09:15:43;;;;;;;;;;;;;;;-0.48;89.73;97892.91;5073640;28;20053;-65
2022/01/27 09:18:09;;;;;;;;;;;;;;;-0.53;89.35;97901.94;5072521;28;19920;-66
2022/01/27 09:20:35;;;;;;;;;;;;;;;-0.40;89.80;97894.00;5066861;28;20366;-66
2022/01/27 09:23:02;;;;;;;;;;;;;;;-0.42;89.66;97896.72;5059169;28;19992;-65
2022/01/27 09:25:40;;;;;;;;;;;;;;;-0.36;89.94;97893.63;5054200;28;20050;-65
2022/01/27 09:28:06;;;;;;;;;;;;;;;-0.08;89.56;97892.88;5053975;28;20035;-65
2022/01/27 09:30:32;;;;;;;;;;;;;;;0.14;87.41;97878.94;5050902;28;20297;-65
2022/01/27 09:32:58;;;;;;;;;;;;;;;0.02;87.21;97867.13;5062189;28;19920;-65
2022/01/27 09:35:23;;;;;;;;;;;;;;;0.23;86.44;97869.56;5064084;28;19924;-65
2022/01/27 09:37:48;;;;;;;;;;;;;;;0.18;86.27;97877.72;5073439;28;20340;-65
2022/01/27 09:40:15;;;;;;;;;;;;;;;0.19;85.81;97881.09;5073080;28;19920;-65
2022/01/27 09:42:41;;;;;;;;;;;;;;;0.31;85.57;97878.28;5071720;28;19917;-64
2022/01/27 09:45:08;;;;;;;;;;;;;;;0.37;85.36;97877.72;5061601;28;19923;-65
2022/01/27 09:47:35;;;;;;;;;;;;;;;0.38;86.47;97870.81;5053443;28;19916;-66
2022/01/27 09:50:21;;;;;;;;;;;;;;;0.61;86.41;97864.41;5053633;28;20074;-65
2022/01/27 09:52:46;;;;;;;;;;;;;;;0.68;85.88;97874.97;5055046;28;19917;-65
2022/01/27 09:55:12;;;;;;;;;;;;;;;0.68;86.16;97875.78;5060770;28;19923;-65
2022/01/27 09:57:37;;;;;;;;;;;;;;;0.61;86.44;97863.59;5068927;28;19919;-68
2022/01/27 10:00:03;;;;;;;;;;;;;;;0.67;86.54;97869.00;5055958;28;19976;-68
2022/01/27 10:02:29;;;;;;;;;;;;;;;0.88;85.54;97862.88;5063291;28;19951;-65
2022/01/27 10:04:59;;;;;;;;;;;;;;;0.95;85.06;97858.78;5053844;28;19955;-64
2022/01/27 10:07:27;;;;;;;;;;;;;;;0.95;85.51;97864.75;5037733;28;20289;-64
2022/01/27 10:10:10;;;;;;;;;;;;;;;1.05;85.35;97854.41;5062168;28;19921;-67
2022/01/27 10:12:42;;;;;;;;;;;;;;;1.06;85.24;97858.63;5063481;28;19917;-70
2022/01/27 10:15:10;;;;;;;;;;;;;;;1.10;85.17;97853.03;5057651;28;20373;-66
2022/01/27 10:17:39;;;;;;;;;;;;;;;0.96;85.47;97855.22;5053078;28;20019;-65
2022/01/27 10:20:24;;;;;;;;;;;;;;;1.11;85.20;97852.09;5068251;28;19917;-65
2022/01/27 10:23:09;;;;;;;;;;;;;;;1.20;84.70;97843.47;5072409;28;19962;-65
2022/01/27 10:25:35;;;;;;;;;;;;;;;1.16;84.58;97847.31;5072476;28;19912;-65
2022/01/27 10:28:09;;;;;;;;;;;;;;;1.13;84.55;97842.41;5064549;28;20388;-64
2022/01/27 10:33:00;;;;;;;;;;;;;;;1.17;84.13;97836.00;5057744;28;20022;-64
2022/01/27 10:35:27;;;;;;;;;;;;;;;1.22;84.10;97838.19;5054373;28;19916;-64
2022/01/27 10:37:53;;;;;;;;;;;;;;;1.05;84.42;97834.56;5063838;28;19930;-64
2022/01/27 10:40:25;;;;;;;;;;;;;;;1.18;85.34;97840.22;5067086;28;20427;-65
2022/01/27 10:43:04;;;;;;;;;;;;;;;1.12;85.59;97834.81;5063868;28;19920;-67
2022/01/27 10:45:30;;;;;;;;;;;;;;;1.31;83.72;97828.75;5069554;28;19923;-64
2022/01/27 10:48:10;;;;;;;;;;;;;;;1.22;84.20;97836.41;5058591;28;19916;-64
2022/01/27 10:50:48;;;;;;;;;;;;;;;1.17;83.97;97830.84;5067848;28;19970;-65
2022/01/27 10:53:14;;;;;;;;;;;;;;;1.27;83.98;97835.16;5043628;28;19920;-64
2022/01/27 10:55:39;;;;;;;;;;;;;;;1.37;84.11;97823.03;5072736;28;19923;-64
2022/01/27 10:58:23;;;;;;;;;;;;;;;1.42;83.30;97825.97;5052351;28;19924;-64
2022/01/27 11:00:55;;;;;;;;;;;;;;;1.11;84.86;97831.44;5065037;28;19917;-64
2022/01/27 11:03:20;;;;;;;;;;;;;;;1.31;84.63;97827.00;5052801;28;19944;-65
2022/01/27 11:05:46;;;;;;;;;;;;;;;1.06;85.47;97827.66;5069961;28;20365;-65
2022/01/27 11:08:11;;;;;;;;;;;;;;;1.25;84.08;97830.13;5050375;28;19924;-67
2022/01/27 11:10:36;;;;;;;;;;;;;;;1.43;84.28;97822.44;5070161;28;19916;-64
2022/01/27 11:13:02;;;;;;;;;;;;;;;1.54;83.69;97822.25;5060638;28;19921;-63
2022/01/27 11:15:27;;;;;;;;;;;;;;;1.66;82.59;97821.94;5051601;28;19924;-68
2022/01/27 11:17:54;;;;;;;;;;;;;;;1.43;83.72;97819.88;5058837;28;20285;-65
2022/01/27 11:20:29;;;;;;;;;;;;;;;1.29;84.17;97815.16;5065268;28;19923;-64
2022/01/27 11:27:51;;;;;;;;;;;;;;;1.59;83.18;97807.13;5056216;28;19917;-65
2022/01/27 11:30:22;;;;;;;;;;;;;;;1.62;83.98;97804.25;5055985;28;19924;-65
2022/01/27 11:33:00;;;;;;;;;;;;;;;1.60;83.38;97801.84;5060939;28;20411;-64
2022/01/27 11:35:26;;;;;;;;;;;;;;;1.73;82.81;97801.47;5075775;28;20249;-65
2022/01/27 11:37:52;;;;;;;;;;;;;;;1.48;83.24;97792.66;5073811;28;19916;-65
2022/01/27 11:40:20;;;;;;;;;;;;;;;1.63;82.83;97788.59;5067689;28;19943;-65
2022/01/27 11:42:54;;;;;;;;;;;;;;;1.52;83.29;97788.81;5062364;28;20273;-65
2022/01/27 11:45:22;;;;;;;;;;;;;;;1.53;83.15;97790.44;5063148;28;19978;-65
2022/01/27 11:47:51;;;;;;;;;;;;;;;1.85;82.11;97789.97;5076385;28;20349;-64
2022/01/27 11:50:31;;;;;;;;;;;;;;;1.59;83.10;97786.47;5074213;28;19960;-65
2022/01/27 11:52:56;;;;;;;;;;;;;;;1.99;81.54;97783.47;5057724;28;19921;-65
2022/01/27 11:55:25;;;;;;;;;;;;;;;2.01;81.67;97777.19;5067975;28;19947;-65
2022/01/27 11:57:51;;;;;;;;;;;;;;;1.93;80.89;97782.28;5055933;28;19917;-65
2022/01/27 12:00:17;;;;;;;;;;;;;;;1.72;82.18;97774.03;5056820;28;20345;-65
2022/01/27 12:03:01;;;;;;;;;;;;;;;2.14;81.37;97770.81;5059077;28;20300;-65
2022/01/27 12:05:27;;;;;;;;;;;;;;;1.96;82.46;97770.81;5061794;28;19913;-65
2022/01/27 12:08:11;;;;;;;;;;;;;;;2.03;82.45;97766.69;5055380;28;20423;-65
2022/01/27 12:10:52;;;;;;;;;;;;;;;2.13;81.49;97759.66;5074732;28;19927;-65
2022/01/27 12:13:24;;;;;;;;;;;;;;;2.14;81.14;97755.31;5066513;28;19921;-66
2022/01/27 12:16:08;;;;;;;;;;;;;;;2.22;80.17;97753.63;5055678;28;19951;-65
2022/01/27 12:18:34;;;;;;;;;;;;;;;2.52;79.94;97760.09;5039464;28;19924;-65
2022/01/27 12:21:19;;;;;;;;;;;;;;;2.34;80.61;97751.59;5074878;28;19923;-65
2022/01/27 12:24:03;;;;;;;;;;;;;;;2.58;80.51;97746.56;5062740;28;20012;-65
2022/01/27 12:26:48;;;;;;;;;;;;;;;2.94;78.99;97747.25;5061159;28;19983;-68
2022/01/27 12:29:24;;;;;;;;;;;;;;;2.92;77.97;97744.81;5061377;28;19993;-65
2022/01/27 12:31:49;;;;;;;;;;;;;;;2.93;77.30;97749.03;5074771;28;19916;-65
2022/01/27 12:34:15;;;;;;;;;;;;;;;2.75;77.46;97761.22;5060889;28;19923;-65
2022/01/27 12:36:52;;;;;;;;;;;;;;;2.82;76.51;97756.25;5065294;28;19916;-65
2022/01/27 12:39:21;;;;;;;;;;;;;;;2.75;77.08;97747.47;5055092;28;19916;-65
2022/01/27 12:41:47;;;;;;;;;;;;;;;2.72;76.70;97733.06;5055265;28;19921;-66
2022/01/27 12:44:13;;;;;;;;;;;;;;;2.81;76.43;97724.38;5058706;28;19924;-65
2022/01/27 12:46:38;;;;;;;;;;;;;;;2.88;75.61;97721.97;5069538;28;20016;-65
2022/01/27 12:49:04;;;;;;;;;;;;;;;2.71;76.42;97723.69;5064266;28;19924;-66
2022/01/27 12:51:49;;;;;;;;;;;;;;;2.85;76.47;97717.09;5070723;28;19917;-65
2022/01/27 12:54:14;;;;;;;;;;;;;;;2.89;74.97;97710.66;5055996;28;19925;-64
2022/01/27 12:56:40;;;;;;;;;;;;;;;3.01;76.88;97714.56;5069593;28;19924;-64
2022/01/27 12:59:12;;;;;;;;;;;;;;;3.11;74.91;97712.69;5054089;28;20007;-64
2022/01/27 13:01:37;;;;;;;;;;;;;;;2.97;75.61;97713.28;5062608;28;19923;-64
2022/01/27 13:04:03;;;;;;;;;;;;;;;2.65;76.16;97707.94;5067125;28;19921;-64
2022/01/27 13:06:29;;;;;;;;;;;;;;;2.88;76.08;97703.88;5055459;28;19921;-65
2022/01/27 13:09:13;;;;;;;;;;;;;;;3.03;75.25;97704.06;5042416;28;19916;-65
2022/01/27 13:11:40;;;;;;;;;;;;;;;3.10;74.35;97699.91;5065227;28;20296;-64
2022/01/27 13:14:06;;;;;;;;;;;;;;;3.12;74.31;97692.78;5058986;28;20392;-64
2022/01/27 13:16:39;;;;;;;;;;;;;;;3.15;74.69;97687.28;5055924;28;19925;-64
2022/01/27 13:19:10;;;;;;;;;;;;;;;3.07;74.42;97685.47;5062858;28;20019;-64
2022/01/27 13:21:37;;;;;;;;;;;;;;;3.01;73.97;97675.72;5053934;28;20372;-68
2022/01/27 13:24:08;;;;;;;;;;;;;;;3.17;74.93;97675.00;5040951;28;19916;-64
2022/01/27 13:26:34;;;;;;;;;;;;;;;3.27;74.18;97673.06;5073021;28;19920;-65
2022/01/27 13:28:59;;;;;;;;;;;;;;;3.30;74.65;97681.31;5073180;28;19961;-64
2022/01/27 13:31:25;;;;;;;;;;;;;;;3.34;73.73;97672.25;5045940;28;19916;-64
2022/01/27 13:33:50;;;;;;;;;;;;;;;3.41;74.56;97669.84;5055937;28;19916;-63